^^
Saratoga-Weather Station Historical Data
Daily Summary for January 29, 2022 Units:  English    Metric   Both
Daily Weekly Monthly Yearly Custom
  High: Low: Average:
Temperature: 46.8 °F 36.9 °F 40.6 °F
Dew Point: 45.3 °F 35.4 °F 39.4 °F
Humidity: 96% 94% 95%
Wind Speed: 11mph 0mph 2.8mph
Wind Gust: 20mph - -
Wind- - WSW
Pressure: 30.6 in 30.3 in -
Precipitation: 0.12 in    
Historical Graphs
 
 
Tabular Data for January 29, 2022
Time Temperature Dew Point Pressure Wind Wind Speed Wind Gust Humidity Rainfall Rate (Hourly) solar
00:02 36.9 °F 35.6 °F 30.6 in West 0.9 mph 9 mph 95% 0 in 0 W/m2
00:07 36.9 °F 35.6 °F 30.6 in Calm   4 mph 95% 0 in 0 W/m2
00:12 36.9 °F 35.6 °F 30.6 in West 2.9 mph 9 mph 95% 0 in 0 W/m2
00:17 36.9 °F 35.6 °F 30.6 in Calm   2 mph 95% 0 in 0 W/m2
00:22 36.9 °F 35.6 °F 30.6 in West 0.9 mph 7 mph 95% 0 in 0 W/m2
00:27 36.9 °F 35.6 °F 30.6 in NNW 2.9 mph 5 mph 95% 0 in 0 W/m2
00:32 37 °F 35.8 °F 30.6 in SW 2 mph 4 mph 95% 0 in 0 W/m2
00:37 37 °F 35.8 °F 30.6 in Calm   2 mph 95% 0 in 0 W/m2
00:42 37 °F 35.8 °F 30.5 in NW 2.9 mph 5 mph 95% 0 in 0 W/m2
00:47 37 °F 35.8 °F 30.5 in NNE 2 mph 2 mph 95% 0 in 0 W/m2
00:52 37 °F 35.8 °F 30.5 in NNW 0.9 mph 7 mph 95% 0 in 0 W/m2
00:57 37 °F 35.8 °F 30.5 in SW 2 mph 5 mph 95% 0 in 0 W/m2
01:02 37 °F 35.8 °F 30.5 in SSW 0.9 mph 3 mph 95% 0 in 0 W/m2
01:07 37 °F 35.8 °F 30.5 in NNW 2 mph 2 mph 95% 0 in 0 W/m2
01:12 37 °F 35.8 °F 30.5 in Calm   3 mph 95% 0 in 0 W/m2
01:17 37 °F 35.8 °F 30.5 in Calm   3 mph 95% 0 in 0 W/m2
01:22 37 °F 35.8 °F 30.5 in WNW 4 mph 6 mph 95% 0 in 0 W/m2
01:27 37 °F 35.8 °F 30.5 in Calm   3 mph 95% 0 in 0 W/m2
01:32 37 °F 35.8 °F 30.5 in WSW 2 mph 8 mph 95% 0 in 0 W/m2
01:37 37 °F 35.8 °F 30.5 in WSW 0.9 mph 6 mph 95% 0 in 0 W/m2
01:42 37 °F 35.8 °F 30.5 in West 0.9 mph 8 mph 95% 0 in 0 W/m2
01:47 37 °F 35.8 °F 30.5 in West 0.9 mph 4 mph 95% 0 in 0 W/m2
01:52 37 °F 35.8 °F 30.5 in Calm   3 mph 95% 0 in 0 W/m2
01:57 37 °F 35.8 °F 30.5 in WNW 2 mph 3 mph 95% 0 in 0 W/m2
02:02 37 °F 35.8 °F 30.5 in WNW 0.9 mph 2 mph 95% 0 in 0 W/m2
02:07 37 °F 35.8 °F 30.5 in Calm   2 mph 95% 0 in 0 W/m2
02:12 36.9 °F 35.6 °F 30.5 in Calm   2 mph 95% 0 in 0 W/m2
02:17 36.9 °F 35.6 °F 30.5 in Calm   4 mph 95% 0 in 0 W/m2
02:22 36.9 °F 35.6 °F 30.5 in West 2.9 mph 4 mph 95% 0 in 0 W/m2
02:27 36.9 °F 35.6 °F 30.5 in Calm   1 mph 95% 0 in 0 W/m2
02:32 37 °F 35.8 °F 30.5 in WNW 2 mph 7 mph 95% 0 in 0 W/m2
02:37 36.9 °F 35.6 °F 30.5 in WNW 2.9 mph 3 mph 95% 0 in 0 W/m2
02:42 37 °F 35.8 °F 30.5 in West 2 mph 4 mph 95% 0 in 0 W/m2
02:47 37 °F 35.8 °F 30.5 in ENE 4 mph 4 mph 95% 0 in 0 W/m2
02:52 37 °F 35.8 °F 30.5 in South 4.9 mph 5 mph 95% 0 in 0 W/m2
02:57 37 °F 35.8 °F 30.5 in WNW 4 mph 4 mph 95% 0 in 0 W/m2
03:02 37 °F 35.8 °F 30.5 in NNW 2 mph 3 mph 95% 0 in 0 W/m2
03:07 37 °F 35.8 °F 30.5 in ESE 2.9 mph 3 mph 95% 0 in 0 W/m2
03:12 37 °F 35.8 °F 30.5 in Calm   3 mph 95% 0 in 0 W/m2
03:17 37 °F 35.8 °F 30.5 in NNW 0.9 mph 3 mph 95% 0 in 0 W/m2
03:22 37 °F 35.8 °F 30.5 in Calm   3 mph 95% 0 in 0 W/m2
03:27 37 °F 35.8 °F 30.5 in SE 4 mph 6 mph 95% 0 in 0 W/m2
03:32 37 °F 35.8 °F 30.5 in SE 4.9 mph 6 mph 95% 0 in 0 W/m2
03:37 37 °F 35.8 °F 30.5 in NW 2.9 mph 7 mph 95% 0 in 0 W/m2
03:42 37 °F 35.8 °F 30.5 in NW 2.9 mph 4 mph 95% 0 in 0 W/m2
03:47 37 °F 35.8 °F 30.5 in WNW 2 mph 4 mph 95% 0 in 0 W/m2
03:52 37 °F 35.8 °F 30.5 in Calm   4 mph 95% 0 in 0 W/m2
03:57 37 °F 35.8 °F 30.5 in Calm   5 mph 95% 0 in 0 W/m2
04:02 37 °F 35.4 °F 30.5 in South 2.9 mph 8 mph 94% 0 in 0 W/m2
04:07 37 °F 35.4 °F 30.5 in NE 0.9 mph 4 mph 94% 0 in 0 W/m2
04:12 37.2 °F 35.6 °F 30.5 in West 6 mph 8 mph 94% 0 in 0 W/m2
04:17 37.2 °F 35.6 °F 30.5 in SSE 4 mph 5 mph 94% 0 in 0 W/m2
04:22 37.2 °F 35.6 °F 30.5 in SE 8.1 mph 8 mph 94% 0 in 0 W/m2
04:27 37.2 °F 35.6 °F 30.5 in ESE 2.9 mph 3 mph 94% 0 in 0 W/m2
04:32 37.2 °F 35.6 °F 30.5 in NW 2 mph 8 mph 94% 0 in 0 W/m2
04:37 37.2 °F 35.6 °F 30.5 in WNW 0.9 mph 5 mph 94% 0 in 0 W/m2
04:42 37.2 °F 35.6 °F 30.5 in West 0.9 mph 7 mph 94% 0 in 0 W/m2
04:47 37.2 °F 35.6 °F 30.5 in NNW 2.9 mph 4 mph 94% 0 in 0 W/m2
04:52 37.2 °F 35.6 °F 30.5 in NW 2.9 mph 4 mph 94% 0 in 0 W/m2
04:57 37.2 °F 35.6 °F 30.5 in WNW 4 mph 7 mph 94% 0 in 0 W/m2
05:02 37.4 °F 35.8 °F 30.5 in NW 0.9 mph 4 mph 94% 0 in 0 W/m2
05:07 37.4 °F 35.8 °F 30.5 in WNW 2 mph 6 mph 94% 0 in 0 W/m2
05:12 37.4 °F 35.8 °F 30.5 in Calm   7 mph 94% 0 in 0 W/m2
05:17 37.4 °F 35.8 °F 30.5 in WSW 0.9 mph 2 mph 94% 0 in 0 W/m2
05:22 37.4 °F 35.8 °F 30.5 in NE 4 mph 4 mph 94% 0 in 0 W/m2
05:27 37.4 °F 35.8 °F 30.5 in Calm   7 mph 94% 0 in 0 W/m2
05:32 37.4 °F 35.8 °F 30.5 in NW 2 mph 3 mph 94% 0 in 0 W/m2
05:37 37.4 °F 35.8 °F 30.5 in WSW 2 mph 7 mph 94% 0 in 0 W/m2
05:42 37.4 °F 35.8 °F 30.5 in West 0.9 mph 2 mph 94% 0 in 0 W/m2
05:47 37.4 °F 35.8 °F 30.5 in North 0.9 mph 3 mph 94% 0 in 0 W/m2
05:52 37.4 °F 35.8 °F 30.5 in NW 2.9 mph 5 mph 94% 0 in 0 W/m2
05:57 37.4 °F 35.8 °F 30.5 in WNW 0.9 mph 3 mph 94% 0 in 0 W/m2
06:02 37.4 °F 35.8 °F 30.5 in North 0.9 mph 2 mph 94% 0 in 0 W/m2
06:07 37.4 °F 35.8 °F 30.5 in WNW 4 mph 8 mph 94% 0 in 0 W/m2
06:12 37.2 °F 35.6 °F 30.5 in NE 4 mph 5 mph 94% 0 in 0 W/m2
06:17 37.2 °F 35.6 °F 30.5 in WSW 2.9 mph 7 mph 94% 0 in 0 W/m2
06:22 37.2 °F 36 °F 30.5 in WNW 0.9 mph 5 mph 95% 0 in 0 W/m2
06:27 37.2 °F 36 °F 30.5 in Calm   3 mph 95% 0 in 0 W/m2
06:33 37.2 °F 36 °F 30.5 in WNW 4 mph 5 mph 95% 0 in 0 W/m2
06:38 37.2 °F 36 °F 30.5 in NW 4 mph 6 mph 95% 0 in 0 W/m2
06:43 37.2 °F 36 °F 30.5 in WNW 2 mph 3 mph 95% 0 in 0 W/m2
06:48 37.2 °F 36 °F 30.5 in Calm   1 mph 95% 0 in 0 W/m2
06:53 37.2 °F 36 °F 30.5 in Calm   4 mph 95% 0 in 0 W/m2
06:58 37.2 °F 36 °F 30.5 in WNW 2 mph 8 mph 95% 0 in 0 W/m2
07:03 37.2 °F 36 °F 30.5 in West 0.9 mph 6 mph 95% 0 in 0 W/m2
07:08 37.4 °F 36.1 °F 30.5 in East 0.9 mph 8 mph 95% 0 in 0 W/m2
07:13 37.4 °F 36.1 °F 30.5 in NNE 0.9 mph 2 mph 95% 0 in 0 W/m2
07:18 37.4 °F 36.1 °F 30.5 in NW 2 mph 4 mph 95% 0 in 0 W/m2
07:23 37.4 °F 36.1 °F 30.4 in WNW 6.9 mph 7 mph 95% 0 in 0 W/m2
07:28 37.4 °F 36.1 °F 30.4 in WSW 2 mph 4 mph 95% 0.01 in 0 W/m2
07:33 37.4 °F 36.1 °F 30.4 in West 4 mph 4 mph 95% 0.01 in 0 W/m2
07:38 37.4 °F 36.1 °F 30.5 in West 0.9 mph 7 mph 95% 0.01 in 0 W/m2
07:43 37.6 °F 36.3 °F 30.5 in Calm   1 mph 95% 0.01 in 0 W/m2
07:48 37.6 °F 36.3 °F 30.5 in NNW 0.9 mph 8 mph 95% 0.01 in 0 W/m2
07:53 37.6 °F 36.3 °F 30.5 in Calm   2 mph 95% 0.01 in 0 W/m2
07:58 37.6 °F 36.3 °F 30.5 in Calm   2 mph 95% 0.01 in 0 W/m2
08:03 37.6 °F 36.3 °F 30.5 in WSW 4 mph 4 mph 95% 0.01 in 0 W/m2
08:08 37.6 °F 36.3 °F 30.4 in Calm   3 mph 95% 0.02 in 0 W/m2
08:13 37.6 °F 36.3 °F 30.4 in Calm   3 mph 95% 0.02 in 0 W/m2
08:18 37.6 °F 36.3 °F 30.4 in ENE 0.9 mph 3 mph 95% 0.02 in 0 W/m2
08:23 37.8 °F 36.5 °F 30.4 in South 4.9 mph 8 mph 95% 0.02 in 0 W/m2
08:28 37.8 °F 36.5 °F 30.5 in NNE 0.9 mph 5 mph 95% 0.01 in 5 W/m2
08:33 37.8 °F 36.5 °F 30.4 in NNW 2 mph 3 mph 95% 0.01 in 7 W/m2
08:38 37.8 °F 36.5 °F 30.4 in NNW 2.9 mph 6 mph 95% 0.01 in 12 W/m2
08:43 37.8 °F 36.5 °F 30.4 in Calm   9 mph 95% 0.01 in 12 W/m2
08:48 37.9 °F 36.7 °F 30.4 in WSW 0.9 mph 8 mph 95% 0.01 in 18 W/m2
08:53 37.9 °F 36.7 °F 30.4 in West 2.9 mph 9 mph 95% 0.01 in 16 W/m2
08:58 37.9 °F 36.7 °F 30.5 in WNW 2.9 mph 4 mph 95% 0.01 in 21 W/m2
09:03 37.9 °F 36.7 °F 30.5 in WNW 4 mph 7 mph 95% 0.01 in 32 W/m2
09:08 37.9 °F 36.7 °F 30.5 in WNW 2 mph 4 mph 95% 0.01 in 14 W/m2
09:13 37.9 °F 36.7 °F 30.5 in WNW 2 mph 7 mph 95% 0.01 in 18 W/m2
09:18 38.1 °F 36.9 °F 30.5 in NW 2 mph 3 mph 95% 0.01 in 32 W/m2
09:23 38.1 °F 37 °F 30.5 in SSE 2 mph 5 mph 96% 0.01 in 25 W/m2
09:28 38.1 °F 37 °F 30.4 in Calm   4 mph 96% 0.01 in 37 W/m2
09:33 38.1 °F 37 °F 30.4 in Calm   2 mph 96% 0.01 in 28 W/m2
09:38 38.3 °F 37.2 °F 30.4 in WNW 2 mph 4 mph 96% 0.01 in 33 W/m2
09:43 38.3 °F 37.2 °F 30.4 in WNW 2 mph 3 mph 96% 0.01 in 28 W/m2
09:48 38.5 °F 37.4 °F 30.4 in SW 2 mph 3 mph 96% 0.01 in 18 W/m2
09:53 38.5 °F 37.4 °F 30.4 in West 2.9 mph 7 mph 96% 0.01 in 54 W/m2
09:58 38.5 °F 37.2 °F 30.4 in Calm   6 mph 95% 0.01 in 39 W/m2
10:03 38.5 °F 37.2 °F 30.4 in SW 4 mph 4 mph 95% 0 in 44 W/m2
10:08 38.7 °F 37.4 °F 30.4 in NNE 0.9 mph 2 mph 95% 0 in 54 W/m2
10:13 38.7 °F 37.4 °F 30.4 in WNW 0.9 mph 6 mph 95% 0 in 47 W/m2
10:18 38.7 °F 37.4 °F 30.4 in North 0.9 mph 6 mph 95% 0 in 47 W/m2
10:23 38.7 °F 37.4 °F 30.4 in NW 2 mph 8 mph 95% 0.01 in 63 W/m2
10:28 38.7 °F 37.4 °F 30.4 in NW 2 mph 5 mph 95% 0.01 in 44 W/m2
10:33 38.8 °F 37.8 °F 30.4 in Calm   8 mph 96% 0.01 in 69 W/m2
10:38 38.8 °F 37.8 °F 30.4 in WSW 6.9 mph 7 mph 96% 0.01 in 51 W/m2
10:43 38.8 °F 37.8 °F 30.4 in NNW 4 mph 5 mph 96% 0.01 in 62 W/m2
10:48 39 °F 37.9 °F 30.4 in SSE 0.9 mph 7 mph 96% 0.01 in 46 W/m2
10:53 39 °F 37.8 °F 30.4 in NW 2.9 mph 5 mph 95% 0.01 in 46 W/m2
10:58 39.2 °F 37.9 °F 30.4 in West 2 mph 6 mph 95% 0.01 in 49 W/m2
11:03 39.2 °F 37.9 °F 30.4 in West 2.9 mph 8 mph 95% 0.01 in 35 W/m2
11:08 39.4 °F 38.1 °F 30.4 in NNE 0.9 mph 3 mph 95% 0.01 in 32 W/m2
11:13 39.4 °F 38.1 °F 30.4 in West 0.9 mph 8 mph 95% 0.01 in 58 W/m2
11:18 39.4 °F 38.3 °F 30.4 in WNW 2 mph 3 mph 96% 0 in 51 W/m2
11:23 39.6 °F 38.5 °F 30.4 in NW 2 mph 7 mph 96% 0 in 88 W/m2
11:28 39.6 °F 38.5 °F 30.4 in North 2 mph 4 mph 96% 0 in 83 W/m2
11:33 39.7 °F 38.7 °F 30.4 in SW 2 mph 6 mph 96% 0 in 76 W/m2
11:38 39.7 °F 38.7 °F 30.4 in SW 4 mph 10 mph 96% 0 in 88 W/m2
11:43 39.9 °F 38.8 °F 30.4 in North 2 mph 3 mph 96% 0 in 69 W/m2
11:48 39.9 °F 38.8 °F 30.4 in South 2 mph 10 mph 96% 0 in 84 W/m2
11:53 40.3 °F 39.2 °F 30.4 in West 2 mph 4 mph 96% 0 in 79 W/m2
11:58 40.3 °F 39.2 °F 30.4 in Calm   3 mph 96% 0 in 127 W/m2
12:03 40.5 °F 39.4 °F 30.4 in ENE 0.9 mph   96% 0 in 53 W/m2
12:08 40.5 °F 39.2 °F 30.4 in WSW 0.9 mph 11 mph 95% 0 in 98 W/m2
12:13 40.5 °F 39.2 °F 30.4 in NNE 2 mph 10 mph 95% 0 in 97 W/m2
12:18 40.6 °F 39.6 °F 30.4 in SE 2.9 mph 11 mph 96% 0 in 97 W/m2
12:23 40.6 °F 39.6 °F 30.4 in East 2.9 mph 9 mph 96% 0 in 102 W/m2
12:28 40.8 °F 39.6 °F 30.4 in NNW 2.9 mph 9 mph 95% 0 in 116 W/m2
12:33 41.2 °F 39.9 °F 30.4 in WNW 4.9 mph 10 mph 95% 0 in 130 W/m2
12:38 41.2 °F 40.1 °F 30.4 in WNW 2.9 mph 3 mph 96% 0 in 132 W/m2
12:43 41.4 °F 40.3 °F 30.4 in NW 2.9 mph 4 mph 96% 0 in 139 W/m2
12:48 41.5 °F 40.5 °F 30.4 in SW 2 mph 9 mph 96% 0 in 79 W/m2
12:53 41.7 °F 40.5 °F 30.4 in West 2.9 mph 6 mph 95% 0 in 37 W/m2
12:58 41.7 °F 40.6 °F 30.4 in NW 2 mph 9 mph 96% 0 in 74 W/m2
13:03 41.9 °F 40.8 °F 30.4 in South 2 mph 13 mph 96% 0 in 104 W/m2
13:08 42.1 °F 40.8 °F 30.4 in NE 4 mph 8 mph 95% 0 in 105 W/m2
13:13 42.3 °F 41 °F 30.4 in West 8.1 mph 13 mph 95% 0 in 102 W/m2
13:18 42.3 °F 41 °F 30.4 in WNW 2.9 mph 7 mph 95% 0 in 162 W/m2
13:23 42.3 °F 41 °F 30.4 in West 6 mph 13 mph 95% 0 in 81 W/m2
13:28 42.3 °F 41 °F 30.4 in South 6 mph 7 mph 95% 0 in 86 W/m2
13:34 42.3 °F 41 °F 30.4 in West 2.9 mph 3 mph 95% 0 in 83 W/m2
13:39 42.3 °F 41 °F 30.4 in NW 2.9 mph 7 mph 95% 0 in 81 W/m2
13:44 42.3 °F 41 °F 30.4 in WNW 2 mph 4 mph 95% 0 in 76 W/m2
13:49 42.1 °F 40.8 °F 30.4 in West 6 mph 14 mph 95% 0 in 86 W/m2
13:54 42.1 °F 40.8 °F 30.4 in WSW 2 mph 10 mph 95% 0 in 83 W/m2
13:59 42.3 °F 41 °F 30.4 in West 6 mph 14 mph 95% 0 in 72 W/m2
14:04 42.3 °F 41 °F 30.4 in SW 2.9 mph 6 mph 95% 0 in 72 W/m2
14:09 42.4 °F 41.2 °F 30.4 in NW 2 mph 11 mph 95% 0 in 83 W/m2
14:14 42.4 °F 41.2 °F 30.4 in West 6.9 mph 7 mph 95% 0 in 97 W/m2
14:19 42.4 °F 41.2 °F 30.4 in WNW 4 mph 11 mph 95% 0 in 74 W/m2
14:24 42.4 °F 41.2 °F 30.4 in SW 2 mph 4 mph 95% 0 in 63 W/m2
14:29 42.6 °F 41.4 °F 30.4 in WNW 4.9 mph 7 mph 95% 0 in 79 W/m2
14:34 42.8 °F 41.5 °F 30.4 in NW 2.9 mph 7 mph 95% 0 in 79 W/m2
14:39 42.8 °F 41.5 °F 30.4 in West 2.9 mph 7 mph 95% 0 in 81 W/m2
14:44 43 °F 41.7 °F 30.4 in WNW 11 mph 11 mph 95% 0 in 81 W/m2
14:49 43 °F 41.7 °F 30.4 in NW 2 mph 7 mph 95% 0 in 86 W/m2
14:54 43 °F 41.7 °F 30.4 in SW 4 mph 8 mph 95% 0.01 in 114 W/m2
14:59 43.2 °F 41.9 °F 30.4 in WSW 4 mph 9 mph 95% 0.01 in 88 W/m2
15:04 43.3 °F 42.1 °F 30.3 in North 2.9 mph 10 mph 95% 0.01 in 90 W/m2
15:09 43.3 °F 42.1 °F 30.3 in WSW 4.9 mph 20 mph 95% 0.01 in 69 W/m2
15:14 43.3 °F 42.1 °F 30.3 in WNW 4.9 mph 13 mph 95% 0.01 in 60 W/m2
15:19 43.3 °F 42.1 °F 30.3 in WNW 2.9 mph 20 mph 95% 0.01 in 58 W/m2
15:24 43.3 °F 42.1 °F 30.3 in WNW 11 mph 13 mph 95% 0.01 in 46 W/m2
15:29 43.3 °F 42.1 °F 30.3 in NW 8.9 mph 10 mph 95% 0.01 in 53 W/m2
15:34 43.3 °F 42.1 °F 30.3 in WNW 4 mph 11 mph 95% 0.01 in 65 W/m2
15:39 43.3 °F 42.1 °F 30.3 in NW 4.9 mph 8 mph 95% 0.01 in 74 W/m2
15:44 43.3 °F 42.1 °F 30.3 in West 4 mph 13 mph 95% 0.01 in 69 W/m2
15:49 43.3 °F 42.1 °F 30.3 in WNW 2.9 mph 9 mph 95% 0.01 in 56 W/m2
15:54 43.3 °F 42.1 °F 30.3 in NW 2 mph 13 mph 95% 0 in 44 W/m2
15:59 43.3 °F 42.1 °F 30.4 in NW 4.9 mph 9 mph 95% 0 in 33 W/m2
16:04 43.3 °F 42.1 °F 30.4 in WSW 2.9 mph 9 mph 95% 0 in 35 W/m2
16:09 43.2 °F 41.9 °F 30.3 in West 2 mph 14 mph 95% 0 in 30 W/m2
16:14 43.3 °F 42.1 °F 30.4 in WNW 2.9 mph 12 mph 95% 0 in 40 W/m2
16:19 43.3 °F 42.1 °F 30.3 in NW 4.9 mph 14 mph 95% 0 in 46 W/m2
16:24 43.3 °F 42.1 °F 30.3 in NW 4 mph 9 mph 95% 0 in 44 W/m2
16:29 43.3 °F 42.1 °F 30.3 in WNW 4.9 mph 11 mph 95% 0 in 39 W/m2
16:34 43.3 °F 42.1 °F 30.4 in WNW 4 mph 8 mph 95% 0 in 35 W/m2
16:39 43.3 °F 42.1 °F 30.4 in WNW 4 mph 12 mph 95% 0 in 32 W/m2
16:44 43.3 °F 42.1 °F 30.3 in SW 4.9 mph 14 mph 95% 0 in 28 W/m2
16:49 43.3 °F 42.1 °F 30.3 in West 4 mph 12 mph 95% 0 in 32 W/m2
16:54 43.3 °F 42.1 °F 30.3 in West 8.9 mph 14 mph 95% 0 in 23 W/m2
16:59 43.3 °F 42.1 °F 30.3 in West 6 mph 11 mph 95% 0 in 18 W/m2
17:04 43.3 °F 42.1 °F 30.3 in Calm   3 mph 95% 0 in 12 W/m2
17:09 43.3 °F 42.1 °F 30.3 in NE 2 mph 11 mph 95% 0 in 9 W/m2
17:14 43.3 °F 42.1 °F 30.3 in NNW 0.9 mph 5 mph 95% 0 in 5 W/m2
17:19 43.2 °F 41.9 °F 30.4 in WSW 6.9 mph 10 mph 95% 0 in 0 W/m2
17:24 43.2 °F 41.9 °F 30.4 in SW 2 mph 8 mph 95% 0 in 0 W/m2
17:29 43.3 °F 42.1 °F 30.3 in West 4 mph 9 mph 95% 0 in 0 W/m2
17:34 43.2 °F 41.9 °F 30.3 in NW 4.9 mph 14 mph 95% 0 in 0 W/m2
17:39 43.2 °F 41.9 °F 30.3 in North 0.9 mph 6 mph 95% 0 in 0 W/m2
17:44 43.3 °F 42.1 °F 30.3 in WSW 0.9 mph 14 mph 95% 0 in 0 W/m2
17:49 43.3 °F 42.1 °F 30.4 in West 6.9 mph 9 mph 95% 0 in 0 W/m2
17:54 43.3 °F 42.1 °F 30.3 in NNW 4 mph 12 mph 95% 0 in 0 W/m2
17:59 43.3 °F 42.1 °F 30.3 in North 2 mph 10 mph 95% 0 in 0 W/m2
18:04 43.3 °F 42.1 °F 30.4 in WSW 4 mph 10 mph 95% 0 in 0 W/m2
18:09 43.3 °F 42.1 °F 30.4 in NW 2.9 mph 9 mph 95% 0 in 0 W/m2
18:14 43.3 °F 42.1 °F 30.4 in WNW 4 mph 7 mph 95% 0 in 0 W/m2
18:19 43.3 °F 42.1 °F 30.4 in WSW 4 mph 12 mph 95% 0 in 0 W/m2
18:24 43.3 °F 42.1 °F 30.4 in NW 4 mph 10 mph 95% 0.01 in 0 W/m2
18:29 43.3 °F 42.1 °F 30.3 in West 2 mph 10 mph 95% 0.01 in 0 W/m2
18:34 43.3 °F 42.1 °F 30.4 in WNW 6.9 mph 10 mph 95% 0.01 in 0 W/m2
18:39 43.3 °F 42.1 °F 30.4 in South 10.1 mph 10 mph 95% 0.01 in 0 W/m2
18:44 43.3 °F 42.1 °F 30.4 in West 0.9 mph 6 mph 95% 0.01 in 0 W/m2
18:49 43.5 °F 42.3 °F 30.4 in WNW 2.9 mph 10 mph 95% 0.02 in 0 W/m2
18:54 43.5 °F 42.3 °F 30.4 in WNW 0.9 mph 11 mph 95% 0.02 in 0 W/m2
18:59 43.5 °F 42.3 °F 30.4 in WNW 0.9 mph 4 mph 95% 0.02 in 0 W/m2
19:04 43.5 °F 42.3 °F 30.4 in West 2 mph 11 mph 95% 0.02 in 0 W/m2
19:09 43.5 °F 42.3 °F 30.4 in WNW 0.9 mph 7 mph 95% 0.02 in 0 W/m2
19:14 43.5 °F 42.3 °F 30.4 in NW 2.9 mph 10 mph 95% 0.02 in 0 W/m2
19:19 43.5 °F 42.3 °F 30.4 in NW 4.9 mph 8 mph 95% 0.02 in 0 W/m2
19:24 43.5 °F 42.3 °F 30.4 in NNW 2 mph 7 mph 95% 0.02 in 0 W/m2
19:29 43.5 °F 42.3 °F 30.4 in NNW 2.9 mph 8 mph 95% 0.02 in 0 W/m2
19:34 43.7 °F 42.4 °F 30.4 in WNW 4 mph 6 mph 95% 0.02 in 0 W/m2
19:39 43.7 °F 42.4 °F 30.4 in NW 2.9 mph 9 mph 95% 0.02 in 0 W/m2
19:44 43.9 °F 42.6 °F 30.4 in SW 0.9 mph 2 mph 95% 0.02 in 0 W/m2
19:49 43.9 °F 42.6 °F 30.4 in West 6 mph 9 mph 95% 0.02 in 0 W/m2
19:54 43.9 °F 42.6 °F 30.4 in WSW 0.9 mph 4 mph 95% 0.02 in 0 W/m2
19:59 43.9 °F 42.6 °F 30.4 in NW 2 mph 3 mph 95% 0.02 in 0 W/m2
20:04 43.9 °F 42.6 °F 30.4 in WNW 6.9 mph 9 mph 95% 0.02 in 0 W/m2
20:09 43.9 °F 42.6 °F 30.4 in NNW 6 mph 6 mph 95% 0.02 in 0 W/m2
20:14 43.9 °F 42.6 °F 30.4 in SSW 6 mph 7 mph 95% 0.02 in 0 W/m2
20:19 44.1 °F 42.8 °F 30.4 in SW 4.9 mph 6 mph 95% 0.02 in 0 W/m2
20:24 44.1 °F 42.8 °F 30.4 in WNW 2 mph 9 mph 95% 0.02 in 0 W/m2
20:29 44.1 °F 42.8 °F 30.4 in NNW 2 mph 5 mph 95% 0.02 in 0 W/m2
20:34 44.1 °F 42.8 °F 30.4 in West 2.9 mph 9 mph 95% 0.02 in 0 W/m2
20:39 44.1 °F 42.8 °F 30.4 in West 2.9 mph 11 mph 95% 0.02 in 0 W/m2
20:44 44.1 °F 42.8 °F 30.4 in West 2.9 mph 4 mph 95% 0.02 in 0 W/m2
20:49 44.1 °F 42.8 °F 30.4 in West 2.9 mph 5 mph 95% 0.02 in 0 W/m2
20:54 44.1 °F 42.8 °F 30.4 in WSW 2 mph 2 mph 95% 0.02 in 0 W/m2
20:59 44.1 °F 42.8 °F 30.4 in SW 4.9 mph 5 mph 95% 0.02 in 0 W/m2
21:04 44.1 °F 42.8 °F 30.4 in WSW 4.9 mph 10 mph 95% 0.02 in 0 W/m2
21:10 44.2 °F 43 °F 30.4 in West 6 mph 11 mph 95% 0.02 in 0 W/m2
21:15 44.2 °F 43 °F 30.4 in WSW 6.9 mph 7 mph 95% 0.02 in 0 W/m2
21:20 44.2 °F 43 °F 30.4 in West 2 mph 6 mph 95% 0.02 in 0 W/m2
21:25 44.2 °F 43.2 °F 30.4 in Calm   3 mph 96% 0.02 in 0 W/m2
21:30 44.2 °F 43.2 °F 30.4 in WNW 2.9 mph 4 mph 96% 0.02 in 0 W/m2
21:35 44.2 °F 43.2 °F 30.4 in WNW 4 mph 4 mph 96% 0.02 in 0 W/m2
21:40 44.2 °F 43.2 °F 30.4 in SW 2 mph 4 mph 96% 0.01 in 0 W/m2
21:45 44.4 °F 43.3 °F 30.4 in West 2.9 mph 7 mph 96% 0.01 in 0 W/m2
21:50 44.4 °F 43.3 °F 30.4 in WNW 2.9 mph 6 mph 96% 0.01 in 0 W/m2
21:55 44.6 °F 43.5 °F 30.4 in WSW 2 mph 4 mph 96% 0 in 0 W/m2
22:00 44.6 °F 43.5 °F 30.4 in West 2.9 mph 4 mph 96% 0 in 0 W/m2
22:05 44.8 °F 43.7 °F 30.4 in SW 0.9 mph 7 mph 96% 0.01 in 0 W/m2
22:10 44.8 °F 43.7 °F 30.4 in WNW 0.9 mph 2 mph 96% 0.01 in 0 W/m2
22:15 45 °F 43.9 °F 30.4 in WSW 4 mph 8 mph 96% 0.01 in 0 W/m2
22:20 45 °F 43.9 °F 30.4 in WNW 6 mph 10 mph 96% 0.01 in 0 W/m2
22:25 45.1 °F 44.1 °F 30.4 in West 4 mph 8 mph 96% 0.01 in 0 W/m2
22:30 45.3 °F 44.2 °F 30.4 in WSW 8.1 mph 9 mph 96% 0.01 in 0 W/m2
22:35 45.5 °F 44.4 °F 30.4 in West 2 mph 6 mph 96% 0.01 in 0 W/m2
22:40 45.7 °F 44.6 °F 30.4 in West 2.9 mph 6 mph 96% 0.01 in 0 W/m2
22:45 45.7 °F 44.6 °F 30.4 in WSW 4 mph 11 mph 96% 0.01 in 0 W/m2
22:50 45.7 °F 44.6 °F 30.4 in West 8.1 mph 8 mph 96% 0.01 in 0 W/m2
22:55 45.9 °F 44.8 °F 30.4 in West 2 mph 11 mph 96% 0.01 in 0 W/m2
23:00 45.9 °F 44.8 °F 30.4 in West 4 mph 11 mph 96% 0.01 in 0 W/m2
23:05 46 °F 45 °F 30.4 in West 6 mph 8 mph 96% 0 in 0 W/m2
23:10 46.2 °F 45.1 °F 30.4 in WNW 4 mph 11 mph 96% 0 in 0 W/m2
23:15 46.2 °F 45.1 °F 30.4 in WSW 6.9 mph 8 mph 96% 0 in 0 W/m2
23:20 46.4 °F 45 °F 30.4 in West 4 mph 7 mph 95% 0 in 0 W/m2
23:25 46.6 °F 45.1 °F 30.4 in West 0.9 mph 6 mph 95% 0 in 0 W/m2
23:30 46.6 °F 45.1 °F 30.4 in West 2.9 mph 5 mph 95% 0 in 0 W/m2
23:35 46.6 °F 45.1 °F 30.4 in WNW 2.9 mph 8 mph 95% 0 in 0 W/m2
23:40 46.6 °F 45.1 °F 30.4 in West 2 mph 6 mph 95% 0 in 0 W/m2
23:45 46.8 °F 45.3 °F 30.4 in WNW 4.9 mph 8 mph 95% 0 in 0 W/m2
23:50 46.8 °F 45.3 °F 30.4 in WNW 2.9 mph 9 mph 95% 0 in 0 W/m2
23:55 46.8 °F 45.3 °F 30.4 in WSW 8.9 mph 11 mph 95% 0.01 in 0 W/m2
Juneau County Weather
Compliments of Weather Underground - 4 mb